Time;durP1;ratioP1;P1;durP2;ratioP2;P2;SDS_P1;SDS_P2;PMS_P1;PMS_P2;Temp;Humidity;BMP_temperature;BMP_pressure;BME280_temperature;BME280_humidity;BME280_pressure;Samples;Min_cycle;Max_cycle;Signal;HPM_P1;HPM_P2
2021/05/20 00:02:10;;;;;;;23.75;3.35;;;39.10;8.00;;;;;;5042876;28;20416;-62
2021/05/20 00:04:37;;;;;;;23.50;2.67;;;38.90;8.20;;;;;;5041728;28;20519;-59
2021/05/20 00:07:04;;;;;;;10.38;2.40;;;39.00;7.70;;;;;;5043732;28;20094;-61
2021/05/20 00:09:30;;;;;;;21.35;2.95;;;38.90;7.70;;;;;;5038992;28;20226;-60
2021/05/20 00:11:57;;;;;;;20.35;2.40;;;38.90;7.60;;;;;;5039588;28;20176;-60
2021/05/20 00:14:25;;;;;;;9.32;2.10;;;38.90;8.10;;;;;;5039876;28;20074;-62
2021/05/20 00:16:52;;;;;;;17.15;2.10;;;38.80;7.90;;;;;;5037076;28;20082;-59
2021/05/20 00:19:18;;;;;;;15.82;1.92;;;38.90;8.00;;;;;;5040086;28;20076;-60
2021/05/20 00:21:45;;;;;;;14.68;2.20;;;38.80;8.00;;;;;;5034042;28;20104;-61
2021/05/20 00:24:11;;;;;;;11.27;1.80;;;38.90;7.50;;;;;;5044228;28;20073;-58
2021/05/20 00:26:38;;;;;;;15.90;2.00;;;38.60;7.70;;;;;;5046004;28;20083;-60
2021/05/20 00:29:04;;;;;;;21.23;2.63;;;38.40;8.00;;;;;;5040789;28;20074;-59
2021/05/20 00:31:31;;;;;;;12.80;2.05;;;38.30;7.70;;;;;;5035984;28;20097;-61
2021/05/20 00:33:58;;;;;;;10.00;2.20;;;38.20;7.50;;;;;;5039332;28;20086;-60
2021/05/20 00:36:24;;;;;;;14.05;2.00;;;38.20;7.60;;;;;;5041298;28;20499;-61
2021/05/20 00:38:51;;;;;;;13.60;1.73;;;37.90;7.60;;;;;;5042238;28;20172;-61
2021/05/20 00:41:20;;;;;;;27.65;2.60;;;37.80;7.90;;;;;;5051736;28;20078;-59
2021/05/20 00:43:46;;;;;;;15.65;2.47;;;37.70;7.60;;;;;;5041902;28;20201;-60
2021/05/20 00:46:14;;;;;;;15.80;1.83;;;37.60;7.90;;;;;;5038804;28;20164;-60
2021/05/20 00:48:40;;;;;;;15.18;2.10;;;37.50;8.10;;;;;;5037606;28;20168;-58
2021/05/20 00:51:07;;;;;;;19.70;2.58;;;37.60;8.30;;;;;;5036332;28;20119;-58
2021/05/20 00:53:33;;;;;;;24.70;3.17;;;37.40;8.50;;;;;;5041229;28;20589;-60
2021/05/20 00:56:01;;;;;;;25.88;2.42;;;37.10;7.90;;;;;;5039857;28;20087;-59
2021/05/20 00:58:27;;;;;;;24.02;2.90;;;37.00;7.80;;;;;;5039741;28;20201;-58
2021/05/20 01:00:56;;;;;;;38.53;2.72;;;37.00;7.90;;;;;;5037596;28;20093;-57
2021/05/20 01:03:24;;;;;;;44.03;3.45;;;36.90;8.10;;;;;;5042541;28;20478;-59
2021/05/20 01:05:56;;;;;;;34.78;3.15;;;36.80;8.30;;;;;;5037432;28;20069;-58
2021/05/20 01:08:25;;;;;;;27.60;3.10;;;36.60;8.30;;;;;;5038356;28;20074;-61
2021/05/20 01:10:54;;;;;;;18.15;2.72;;;36.50;8.60;;;;;;5038640;28;20078;-60
2021/05/20 01:13:21;;;;;;;17.13;2.05;;;36.40;8.50;;;;;;5040937;28;20115;-57
2021/05/20 01:15:48;;;;;;;27.10;2.20;;;36.20;8.40;;;;;;5042840;28;20092;-60
2021/05/20 01:18:15;;;;;;;14.27;2.10;;;36.10;8.70;;;;;;5043436;28;20169;-60
2021/05/20 01:20:43;;;;;;;18.25;1.95;;;35.90;8.80;;;;;;5041275;28;20074;-61
2021/05/20 01:23:18;;;;;;;23.15;2.60;;;35.80;8.80;;;;;;5037415;28;20478;-61
2021/05/20 01:25:47;;;;;;;15.88;1.95;;;35.80;8.90;;;;;;5036838;28;20152;-59
2021/05/20 01:28:17;;;;;;;25.67;2.65;;;35.70;8.80;;;;;;5043780;28;20078;-60
2021/05/20 01:30:45;;;;;;;21.27;2.05;;;35.60;8.20;;;;;;5039343;28;20160;-60
2021/05/20 01:33:12;;;;;;;19.13;2.53;;;35.60;8.20;;;;;;5040679;28;20096;-57
2021/05/20 01:35:40;;;;;;;15.70;2.70;;;35.50;8.40;;;;;;5036723;28;20077;-60
2021/05/20 01:40:51;;;;;;;10.32;2.05;;;35.30;8.50;;;;;;5040023;28;20523;-60
2021/05/20 01:43:18;;;;;;;12.27;2.00;;;35.90;8.50;;;;;;5039509;28;20084;-60
2021/05/20 01:45:56;;;;;;;13.52;2.30;;;36.40;8.20;;;;;;5041566;28;20109;-60
2021/05/20 01:48:24;;;;;;;16.80;2.40;;;36.20;8.30;;;;;;5039099;28;20078;-61
2021/05/20 01:50:51;;;;;;;20.85;2.80;;;35.70;8.30;;;;;;5035582;28;20125;-60
2021/05/20 01:53:18;;;;;;;24.05;3.35;;;35.50;9.20;;;;;;5039399;28;20095;-62
2021/05/20 01:55:49;;;;;;;22.48;2.88;;;35.30;8.70;;;;;;5033414;28;20076;-61
2021/05/20 01:58:16;;;;;;;30.23;2.83;;;35.10;8.90;;;;;;5038168;28;20177;-61
2021/05/20 02:00:43;;;;;;;21.20;3.15;;;34.90;9.30;;;;;;5032544;28;20092;-60
2021/05/20 02:03:09;;;;;;;36.28;3.92;;;34.70;9.60;;;;;;5040509;28;20104;-61
2021/05/20 02:05:36;;;;;;;30.70;3.33;;;34.50;10.00;;;;;;5042203;28;20123;-61
2021/05/20 02:08:03;;;;;;;27.30;3.20;;;34.30;10.20;;;;;;5038584;28;20102;-62
2021/05/20 02:10:30;;;;;;;28.95;4.10;;;34.10;10.40;;;;;;5034009;28;20524;-61
2021/05/20 02:12:57;;;;;;;29.65;2.95;;;33.90;10.70;;;;;;5035278;28;20109;-61
2021/05/20 02:15:23;;;;;;;35.58;3.53;;;33.70;10.70;;;;;;5036022;28;20065;-59
2021/05/20 02:17:50;;;;;;;30.17;3.50;;;33.60;10.70;;;;;;5035988;28;20548;-63
2021/05/20 02:20:16;;;;;;;47.88;3.72;;;33.40;10.70;;;;;;5033060;28;20117;-63
2021/05/20 02:22:43;;;;;;;32.03;3.60;;;33.30;10.50;;;;;;5026081;28;20102;-61
2021/05/20 02:25:10;;;;;;;40.03;3.83;;;33.20;10.40;;;;;;5023218;28;20078;-61
2021/05/20 02:27:36;;;;;;;32.45;4.03;;;33.10;10.40;;;;;;5033971;28;20066;-62
2021/05/20 02:30:05;;;;;;;38.55;4.93;;;33.10;10.40;;;;;;5036400;28;20148;-61
2021/05/20 02:32:31;;;;;;;29.73;3.88;;;32.90;10.20;;;;;;5032290;28;20441;-59
2021/05/20 02:34:58;;;;;;;34.15;4.40;;;32.80;10.30;;;;;;5039319;28;20078;-61
2021/05/20 02:37:25;;;;;;;29.38;3.90;;;32.70;10.30;;;;;;5032373;28;20127;-58
2021/05/20 02:39:51;;;;;;;37.75;4.03;;;32.60;10.20;;;;;;5034457;28;20078;-62
2021/05/20 02:42:18;;;;;;;36.05;4.10;;;32.50;10.20;;;;;;5037755;28;20077;-61
2021/05/20 02:44:44;;;;;;;29.13;3.65;;;32.50;10.20;;;;;;5039251;28;20983;-61
2021/05/20 02:47:11;;;;;;;31.30;3.53;;;32.20;10.10;;;;;;5036961;28;21081;-61
2021/05/20 02:49:37;;;;;;;25.40;4.47;;;32.30;10.20;;;;;;5037942;28;20086;-62
2021/05/20 02:52:04;;;;;;;26.48;2.97;;;32.30;10.30;;;;;;5037346;28;20125;-61
2021/05/20 02:54:30;;;;;;;21.48;3.13;;;32.20;10.40;;;;;;5040491;28;20080;-63
2021/05/20 02:56:57;;;;;;;24.60;2.67;;;32.20;10.40;;;;;;5037310;28;20180;-61
2021/05/20 02:59:24;;;;;;;23.08;3.25;;;32.10;10.20;;;;;;5042606;28;20088;-62
2021/05/20 03:01:51;;;;;;;24.77;2.40;;;32.10;10.30;;;;;;5040922;28;20078;-60
2021/05/20 03:04:17;;;;;;;23.55;2.90;;;31.90;10.20;;;;;;5041379;28;20435;-63
2021/05/20 03:06:44;;;;;;;13.43;2.33;;;31.90;10.40;;;;;;5039800;28;20081;-61
2021/05/20 03:09:11;;;;;;;18.98;2.38;;;31.80;10.40;;;;;;5040600;28;20073;-61
2021/05/20 03:11:38;;;;;;;17.25;2.33;;;31.80;10.40;;;;;;5040604;28;20454;-60
2021/05/20 03:14:05;;;;;;;14.05;2.40;;;31.70;10.50;;;;;;5041953;28;20077;-62
2021/05/20 03:16:31;;;;;;;9.88;2.10;;;31.70;10.60;;;;;;5042359;28;20438;-60
2021/05/20 03:18:59;;;;;;;12.50;2.60;;;31.70;10.80;;;;;;5037510;28;20081;-64
2021/05/20 03:21:26;;;;;;;13.10;2.53;;;31.60;10.90;;;;;;5040540;28;20074;-63
2021/05/20 03:23:55;;;;;;;11.88;1.90;;;31.50;11.00;;;;;;5038881;28;21197;-62
2021/05/20 03:26:21;;;;;;;13.70;2.50;;;31.40;11.20;;;;;;5039595;28;20082;-63
2021/05/20 03:28:48;;;;;;;10.27;2.15;;;31.40;11.50;;;;;;5037772;28;20169;-60
2021/05/20 03:31:14;;;;;;;15.18;2.40;;;31.30;11.90;;;;;;5039495;28;20148;-61
2021/05/20 03:33:43;;;;;;;16.85;2.20;;;31.20;12.20;;;;;;5036297;28;20098;-63
2021/05/20 03:36:10;;;;;;;15.02;2.30;;;31.00;12.00;;;;;;5038565;28;20168;-62
2021/05/20 03:38:36;;;;;;;9.45;1.98;;;31.00;12.00;;;;;;5039502;28;20079;-59
2021/05/20 03:41:04;;;;;;;6.60;1.52;;;31.00;12.00;;;;;;5046679;28;20077;-64
2021/05/20 03:43:32;;;;;;;18.02;2.05;;;30.90;11.70;;;;;;5042713;28;20448;-64
2021/05/20 03:45:59;;;;;;;22.65;3.83;;;30.90;11.80;;;;;;5043160;28;20109;-61
2021/05/20 03:48:25;;;;;;;14.00;3.47;;;30.80;12.40;;;;;;5046944;28;20424;-63
2021/05/20 03:50:54;;;;;;;8.55;2.97;;;30.60;12.90;;;;;;5042737;28;20078;-61
2021/05/20 03:53:20;;;;;;;22.58;4.15;;;30.40;13.10;;;;;;5045068;28;20078;-62
2021/05/20 03:55:48;;;;;;;20.67;3.72;;;30.30;13.20;;;;;;5046769;28;20078;-61
2021/05/20 03:58:15;;;;;;;12.50;2.25;;;30.20;13.10;;;;;;5045771;28;20156;-61
2021/05/20 04:00:41;;;;;;;8.23;2.20;;;30.20;13.10;;;;;;5045069;28;20074;-61
2021/05/20 04:03:08;;;;;;;10.98;2.55;;;30.10;13.20;;;;;;5045134;28;20165;-62
2021/05/20 04:05:34;;;;;;;17.15;2.60;;;30.10;13.10;;;;;;5041962;28;20082;-60
2021/05/20 04:08:01;;;;;;;15.57;3.38;;;30.00;13.20;;;;;;5041569;28;20078;-58
2021/05/20 04:10:27;;;;;;;23.45;4.07;;;30.00;13.20;;;;;;5042217;28;20070;-61
2021/05/20 04:12:54;;;;;;;15.35;3.63;;;29.90;13.80;;;;;;5041309;28;20227;-65
2021/05/20 04:15:20;;;;;;;19.50;3.38;;;29.80;13.30;;;;;;5041157;28;20086;-63
2021/05/20 04:17:47;;;;;;;16.65;3.13;;;29.80;13.50;;;;;;5040963;28;20162;-62
2021/05/20 04:20:14;;;;;;;21.77;2.90;;;29.80;13.40;;;;;;5038835;28;20078;-61
2021/05/20 04:22:41;;;;;;;17.88;3.40;;;29.80;13.40;;;;;;5044349;28;20506;-60
2021/05/20 04:25:07;;;;;;;20.95;2.85;;;29.70;13.60;;;;;;5044297;28;20169;-60
2021/05/20 04:27:34;;;;;;;16.08;2.65;;;29.60;13.90;;;;;;5039145;28;20165;-61
2021/05/20 04:30:00;;;;;;;17.85;3.15;;;29.50;14.10;;;;;;5043119;28;20073;-60
2021/05/20 04:32:27;;;;;;;16.67;3.30;;;29.50;14.40;;;;;;5044643;28;20100;-60
2021/05/20 04:34:55;;;;;;;13.45;2.78;;;29.40;14.70;;;;;;5041177;28;20084;-61
2021/05/20 04:37:22;;;;;;;8.98;2.63;;;29.30;14.90;;;;;;5038760;28;20069;-62
2021/05/20 04:39:49;;;;;;;16.50;4.13;;;29.30;15.20;;;;;;5036268;28;20423;-60
2021/05/20 04:42:15;;;;;;;15.43;2.90;;;29.10;15.40;;;;;;5041938;28;20078;-60
2021/05/20 04:44:45;;;;;;;19.95;2.60;;;29.10;15.80;;;;;;5037221;28;20131;-59
2021/05/20 04:47:17;;;;;;;21.92;3.92;;;29.00;16.00;;;;;;5037363;28;20081;-60
2021/05/20 04:49:44;;;;;;;21.27;3.25;;;29.00;16.80;;;;;;5038301;28;20086;-59
2021/05/20 04:52:10;;;;;;;23.75;3.42;;;28.90;16.60;;;;;;5036472;28;20098;-60
2021/05/20 04:54:37;;;;;;;19.60;3.13;;;28.80;16.80;;;;;;5043134;28;20523;-61
2021/05/20 04:57:04;;;;;;;20.00;2.42;;;28.80;17.00;;;;;;5044474;28;20081;-60
2021/05/20 04:59:30;;;;;;;16.42;2.35;;;28.70;17.30;;;;;;5047856;28;20074;-58
2021/05/20 05:01:57;;;;;;;13.13;2.30;;;28.70;17.40;;;;;;5045503;28;20137;-61
2021/05/20 05:04:23;;;;;;;21.25;2.22;;;28.60;17.80;;;;;;5046775;28;20074;-61
2021/05/20 05:06:50;;;;;;;21.58;2.45;;;28.60;18.00;;;;;;5045947;28;20077;-62
2021/05/20 05:09:16;;;;;;;14.20;2.13;;;28.40;18.30;;;;;;5045638;28;20423;-61
2021/05/20 05:11:43;;;;;;;14.63;2.28;;;28.30;18.80;;;;;;5042430;28;20453;-61
2021/05/20 05:14:09;;;;;;;16.98;1.90;;;28.00;26.00;;;;;;5039552;28;20160;-60
2021/05/20 05:16:36;;;;;;;10.05;2.15;;;28.10;19.20;;;;;;5046586;28;20078;-60
2021/05/20 05:19:03;;;;;;;23.23;2.45;;;28.10;19.30;;;;;;5041336;28;20070;-59
2021/05/20 05:21:29;;;;;;;14.43;1.88;;;28.10;19.40;;;;;;5045831;28;20077;-60
2021/05/20 05:23:56;;;;;;;16.23;2.00;;;28.00;19.70;;;;;;5040322;28;20077;-60
2021/05/20 05:26:23;;;;;;;11.93;2.17;;;27.90;20.00;;;;;;5044498;28;20105;-62
2021/05/20 05:28:50;;;;;;;15.63;2.58;;;27.70;20.30;;;;;;5043037;28;20474;-62
2021/05/20 05:31:21;;;;;;;14.75;1.92;;;27.70;20.40;;;;;;5045084;28;20212;-61
2021/05/20 05:33:48;;;;;;;18.00;2.58;;;27.70;20.50;;;;;;5042559;28;20086;-61
2021/05/20 05:36:14;;;;;;;15.07;2.25;;;27.60;20.60;;;;;;5045432;28;20153;-63
2021/05/20 05:38:41;;;;;;;24.40;2.58;;;27.50;20.60;;;;;;5041772;28;20077;-59
2021/05/20 05:41:07;;;;;;;13.50;2.10;;;27.50;20.50;;;;;;5045355;28;20436;-60
2021/05/20 05:43:34;;;;;;;16.83;1.92;;;27.50;20.40;;;;;;5045575;28;20123;-60
2021/05/20 05:46:00;;;;;;;11.13;1.92;;;27.50;20.50;;;;;;5040642;28;20499;-58
2021/05/20 05:48:27;;;;;;;10.93;1.77;;;27.50;20.40;;;;;;5045268;28;20599;-62
2021/05/20 05:50:56;;;;;;;13.38;2.03;;;27.50;20.30;;;;;;5045224;28;20127;-59
2021/05/20 05:53:24;;;;;;;14.32;2.00;;;27.50;20.10;;;;;;5043227;28;20531;-60
2021/05/20 05:55:51;;;;;;;14.15;2.33;;;27.50;20.00;;;;;;5045417;28;20074;-60
2021/05/20 05:58:20;;;;;;;11.77;1.80;;;27.40;19.80;;;;;;5043968;28;20089;-60
2021/05/20 06:00:46;;;;;;;7.30;2.10;;;27.40;19.60;;;;;;5041504;28;20152;-60
2021/05/20 06:03:15;;;;;;;10.82;2.08;;;27.30;19.50;;;;;;5043035;28;20589;-60
2021/05/20 06:05:42;;;;;;;14.50;1.55;;;27.30;19.40;;;;;;5042001;28;20447;-61
2021/05/20 06:08:09;;;;;;;14.57;2.50;;;27.30;19.20;;;;;;5044105;28;20537;-58
2021/05/20 06:10:37;;;;;;;12.77;2.20;;;27.40;19.10;;;;;;5043339;28;20168;-61
2021/05/20 06:13:04;;;;;;;18.50;2.00;;;27.40;19.40;;;;;;5045657;28;20591;-59
2021/05/20 06:15:31;;;;;;;10.07;2.13;;;27.40;18.80;;;;;;5044275;28;20153;-58
2021/05/20 06:17:57;;;;;;;12.65;1.80;;;27.40;18.60;;;;;;5048455;28;20104;-59
2021/05/20 06:20:24;;;;;;;20.33;3.25;;;27.40;18.30;;;;;;5044368;28;20090;-60
2021/05/20 06:22:51;;;;;;;10.48;1.85;;;27.50;18.30;;;;;;5042339;28;20098;-60
2021/05/20 06:25:18;;;;;;;17.13;1.98;;;27.50;18.20;;;;;;5040069;28;20113;-58
2021/05/20 06:27:44;;;;;;;25.23;2.70;;;27.60;18.20;;;;;;5039310;28;20165;-59
2021/05/20 06:30:11;;;;;;;23.27;3.03;;;27.50;18.60;;;;;;5042771;28;20082;-61
2021/05/20 06:32:41;;;;;;;32.67;2.90;;;27.50;18.40;;;;;;5040103;28;20094;-61
2021/05/20 06:35:08;;;;;;;25.00;2.33;;;27.50;18.50;;;;;;5043979;28;20082;-57
2021/05/20 06:37:35;;;;;;;21.15;2.60;;;27.50;18.50;;;;;;5039984;28;20074;-61
2021/05/20 06:40:02;;;;;;;15.57;2.67;;;27.40;18.70;;;;;;5040781;28;20088;-60
2021/05/20 06:42:28;;;;;;;18.85;2.20;;;27.40;18.70;;;;;;5037002;28;20093;-61
2021/05/20 06:44:55;;;;;;;13.20;1.83;;;27.40;18.80;;;;;;5035185;28;20093;-61
2021/05/20 06:47:21;;;;;;;17.67;1.80;;;27.40;18.70;;;;;;5040714;28;20540;-61
2021/05/20 06:49:48;;;;;;;17.00;1.63;;;27.40;18.70;;;;;;5042364;28;20074;-61
2021/05/20 06:52:14;;;;;;;10.93;1.92;;;27.40;18.70;;;;;;5039469;28;20098;-61
2021/05/20 06:54:41;;;;;;;11.05;1.85;;;27.40;18.70;;;;;;5040012;28;20164;-58
2021/05/20 06:57:31;;;;;;;8.52;1.52;;;27.40;18.80;;;;;;5039073;28;20081;-59
2021/05/20 06:59:57;;;;;;;6.78;1.40;;;27.40;18.90;;;;;;5035306;28;20189;-59
2021/05/20 07:02:27;;;;;;;7.35;1.17;;;27.40;19.10;;;;;;5040503;28;20082;-61
2021/05/20 07:04:54;;;;;;;12.75;1.10;;;27.30;19.10;;;;;;5037945;28;20096;-58
2021/05/20 07:07:21;;;;;;;7.28;1.05;;;27.40;19.20;;;;;;5041121;28;20535;-59
2021/05/20 07:09:49;;;;;;;17.67;2.20;;;27.30;19.20;;;;;;5038120;28;20172;-60
2021/05/20 07:12:17;;;;;;;4.65;1.10;;;27.30;19.20;;;;;;5039382;28;20163;-55
2021/05/20 07:14:43;;;;;;;7.55;1.30;;;27.40;19.20;;;;;;5039445;28;20097;-56
2021/05/20 07:17:11;;;;;;;9.13;1.65;;;27.40;19.20;;;;;;5038528;28;20106;-59
2021/05/20 07:19:38;;;;;;;6.13;1.20;;;27.40;19.30;;;;;;5041400;28;20091;-58
2021/05/20 07:22:05;;;;;;;8.85;1.05;;;27.40;19.30;;;;;;5042715;28;20085;-62
2021/05/20 07:24:32;;;;;;;4.43;0.93;;;27.40;19.40;;;;;;5039123;28;20538;-61
2021/05/20 07:26:59;;;;;;;5.45;0.90;;;27.40;19.40;;;;;;5040564;28;20089;-61
2021/05/20 07:29:25;;;;;;;10.80;1.23;;;27.40;19.40;;;;;;5041299;28;20115;-61
2021/05/20 07:31:52;;;;;;;9.75;1.10;;;27.40;19.50;;;;;;5035119;28;20653;-62
2021/05/20 07:34:18;;;;;;;10.13;1.05;;;27.40;19.60;;;;;;5040865;28;20081;-62
2021/05/20 07:36:45;;;;;;;8.18;1.58;;;27.40;19.70;;;;;;5039846;28;20101;-63
2021/05/20 07:39:12;;;;;;;8.45;1.20;;;27.40;19.80;;;;;;5036429;28;20066;-63
2021/05/20 07:41:41;;;;;;;11.30;1.55;;;27.30;19.90;;;;;;5040151;28;20070;-62
2021/05/20 07:44:07;;;;;;;6.07;0.90;;;27.30;20.00;;;;;;5043723;28;20086;-61
2021/05/20 07:46:34;;;;;;;10.95;1.80;;;27.20;20.10;;;;;;5043238;28;20124;-63
2021/05/20 07:49:00;;;;;;;10.48;1.20;;;27.20;20.30;;;;;;5043773;28;20176;-61
2021/05/20 07:51:27;;;;;;;3.72;0.75;;;26.90;25.60;;;;;;5040906;28;20565;-60
2021/05/20 07:53:53;;;;;;;5.47;0.80;;;27.10;20.20;;;;;;5039599;28;20110;-59
2021/05/20 07:56:20;;;;;;;3.70;0.80;;;27.10;20.30;;;;;;5044363;28;20069;-59
2021/05/20 07:58:52;;;;;;;6.70;0.95;;;27.10;20.50;;;;;;5045838;28;20144;-60
2021/05/20 08:01:19;;;;;;;10.55;1.20;;;27.10;20.50;;;;;;5043228;28;20078;-58
2021/05/20 08:03:50;;;;;;;11.90;0.88;;;27.10;20.30;;;;;;5041758;28;20165;-60
2021/05/20 08:08:57;;;;;;;2.67;0.77;;;27.10;20.40;;;;;;5043383;28;20534;-58
2021/05/20 08:11:23;;;;;;;11.82;1.17;;;27.10;20.40;;;;;;5041845;28;20105;-58
2021/05/20 08:13:50;;;;;;;8.30;0.95;;;27.00;20.40;;;;;;5043357;28;20432;-63
2021/05/20 08:16:17;;;;;;;9.88;1.20;;;27.00;20.50;;;;;;5045623;28;20156;-62
2021/05/20 08:18:43;;;;;;;10.88;1.17;;;27.00;20.50;;;;;;5042715;28;20100;-61
2021/05/20 08:21:10;;;;;;;5.13;1.15;;;27.10;25.20;;;;;;5042901;28;20071;-60
2021/05/20 08:23:39;;;;;;;7.65;1.20;;;26.80;27.50;;;;;;5040776;28;20058;-62
2021/05/20 08:26:07;;;;;;;3.30;0.90;;;27.00;20.80;;;;;;5040512;28;20147;-60
2021/05/20 08:28:34;;;;;;;10.68;0.98;;;26.90;20.70;;;;;;5040082;28;20483;-61
2021/05/20 08:31:00;;;;;;;3.22;0.73;;;26.90;20.60;;;;;;5042291;28;20152;-57
2021/05/20 08:33:27;;;;;;;7.43;1.30;;;26.90;20.60;;;;;;5041092;28;20082;-58
2021/05/20 08:35:55;;;;;;;7.60;0.88;;;26.90;20.80;;;;;;5042537;28;20078;-58
2021/05/20 08:38:21;;;;;;;8.35;0.80;;;26.80;20.90;;;;;;5045326;28;20097;-60
2021/05/20 08:40:48;;;;;;;10.07;1.40;;;26.80;21.10;;;;;;5043026;28;20078;-56
2021/05/20 08:43:15;;;;;;;11.98;0.90;;;26.60;20.80;;;;;;5039803;28;20557;-61
2021/05/20 08:45:41;;;;;;;4.10;0.80;;;26.60;21.40;;;;;;5041658;28;20121;-61
2021/05/20 08:48:09;;;;;;;9.15;0.98;;;26.60;21.60;;;;;;5042208;28;20080;-61
2021/05/20 08:50:36;;;;;;;9.15;0.93;;;26.50;21.00;;;;;;5040824;28;20131;-60
2021/05/20 08:53:03;;;;;;;6.70;1.13;;;26.60;21.60;;;;;;5041578;28;20124;-60
2021/05/20 08:55:32;;;;;;;10.93;1.20;;;26.50;30.60;;;;;;5040553;28;20153;-58
2021/05/20 08:58:01;;;;;;;9.07;0.68;;;26.40;22.90;;;;;;5037724;28;20090;-62
2021/05/20 09:00:29;;;;;;;9.60;0.85;;;26.40;22.10;;;;;;5039538;28;20105;-59
2021/05/20 09:03:14;;;;;;;17.05;1.40;;;26.50;22.30;;;;;;5038414;28;20085;-60
2021/05/20 09:05:42;;;;;;;7.63;1.10;;;26.50;22.50;;;;;;5041335;28;20066;-60
2021/05/20 09:08:21;;;;;;;6.57;0.90;;;26.30;22.50;;;;;;5038748;28;20173;-61
2021/05/20 09:10:48;;;;;;;12.20;1.17;;;26.30;22.40;;;;;;5039912;28;20515;-62
2021/05/20 09:13:19;;;;;;;12.27;1.13;;;26.20;23.00;;;;;;5039188;28;20113;-61
2021/05/20 09:15:48;;;;;;;9.05;1.25;;;26.30;42.40;;;;;;5043722;28;20519;-60
2021/05/20 09:18:29;;;;;;;9.18;0.90;;;26.00;22.40;;;;;;5040236;28;20101;-62
2021/05/20 09:20:58;;;;;;;10.68;1.30;;;26.00;22.70;;;;;;5040550;28;20073;-60
2021/05/20 09:23:28;;;;;;;12.35;0.95;;;25.90;23.10;;;;;;5039125;28;20078;-60
2021/05/20 09:26:07;;;;;;;27.25;1.75;;;25.80;23.00;;;;;;5040512;28;20077;-59
2021/05/20 09:28:55;;;;;;;6.65;1.10;;;25.80;23.40;;;;;;5042879;28;20072;-59
2021/05/20 09:31:40;;;;;;;14.40;1.05;;;25.70;23.70;;;;;;5040175;28;21116;-59
2021/05/20 09:34:16;;;;;;;10.50;1.05;;;25.60;26.30;;;;;;5037345;28;20085;-60
2021/05/20 09:36:48;;;;;;;16.15;1.25;;;25.60;23.70;;;;;;5039801;28;20067;-58
2021/05/20 09:39:17;;;;;;;9.82;1.48;;;25.50;23.70;;;;;;5042593;28;21435;-60
2021/05/20 09:41:44;;;;;;;10.00;1.20;;;25.60;34.60;;;;;;5039485;28;20051;-62
2021/05/20 09:44:46;;;;;;;7.55;1.13;;;25.50;29.30;;;;;;5041524;28;20094;-60
2021/05/20 09:47:15;;;;;;;12.68;1.75;;;25.40;31.70;;;;;;4998196;28;20083;-58
2021/05/20 09:50:16;;;;;;;7.70;0.82;;;25.50;24.10;;;;;;5034987;28;20571;-62
2021/05/20 09:52:42;;;;;;;15.38;1.50;;;25.50;24.00;;;;;;5040059;28;20117;-60
2021/05/20 09:55:22;;;;;;;7.93;0.90;;;25.20;23.70;;;;;;5040531;28;20175;-61
2021/05/20 09:57:49;;;;;;;18.33;1.58;;;25.40;28.30;;;;;;5042213;28;20510;-62
2021/05/20 10:00:20;;;;;;;10.38;1.00;;;25.30;24.10;;;;;;5039782;28;20479;-59
2021/05/20 10:02:48;;;;;;;19.88;1.55;;;25.30;24.20;;;;;;5039777;28;20073;-58
2021/05/20 10:05:25;;;;;;;10.35;1.25;;;25.20;24.50;;;;;;5040788;28;20078;-59
2021/05/20 10:07:52;;;;;;;9.52;0.90;;;25.10;24.10;;;;;;5042640;28;20547;-60
2021/05/20 10:10:19;;;;;;;14.75;1.15;;;25.10;25.20;;;;;;5038508;28;20074;-59
2021/05/20 10:12:46;;;;;;;8.95;1.30;;;25.10;24.40;;;;;;5037943;28;20097;-61
2021/05/20 10:15:23;;;;;;;11.57;1.02;;;25.20;25.40;;;;;;5039474;28;20078;-57
2021/05/20 10:17:52;;;;;;;9.55;1.20;;;25.10;24.60;;;;;;5042075;28;20077;-58
2021/05/20 10:20:21;;;;;;;6.50;1.20;;;25.00;25.40;;;;;;5038959;28;20152;-57
2021/05/20 10:22:49;;;;;;;5.30;0.75;;;24.80;27.40;;;;;;5039281;28;20108;-61
2021/05/20 10:25:18;;;;;;;9.77;1.23;;;24.90;27.90;;;;;;5040070;28;20070;-59
2021/05/20 10:27:45;;;;;;;10.95;1.15;;;24.90;25.10;;;;;;5038640;28;20077;-59
2021/05/20 10:30:17;;;;;;;1.45;0.60;;;24.80;25.00;;;;;;5041440;28;20495;-61
2021/05/20 10:32:45;;;;;;;3.60;0.85;;;24.70;25.30;;;;;;5041589;28;20097;-59
2021/05/20 10:35:16;;;;;;;8.07;0.98;;;24.70;24.50;;;;;;5039721;28;20544;-60
2021/05/20 10:37:43;;;;;;;3.88;0.80;;;24.70;28.20;;;;;;5038038;28;20527;-60
2021/05/20 10:40:32;;;;;;;6.50;0.90;;;24.60;32.10;;;;;;5040949;28;20117;-60
2021/05/20 10:43:27;;;;;;;8.20;0.60;;;24.70;24.20;;;;;;5039031;28;20128;-61
2021/05/20 10:46:00;;;;;;;4.20;0.82;;;24.80;29.80;;;;;;5038893;28;20555;-60
2021/05/20 10:48:28;;;;;;;9.93;0.93;;;24.70;25.50;;;;;;5038653;28;20079;-58
2021/05/20 10:50:56;;;;;;;6.32;1.00;;;24.50;33.30;;;;;;5039975;28;20074;-59
2021/05/20 10:53:41;;;;;;;10.88;1.25;;;24.80;35.40;;;;;;5031045;28;20073;-58
2021/05/20 10:56:34;;;;;;;11.23;1.38;;;24.80;23.70;;;;;;5036389;28;20166;-60
2021/05/20 10:59:22;;;;;;;8.70;1.15;;;24.70;23.70;;;;;;5035650;28;20082;-61
2021/05/20 11:01:48;;;;;;;4.75;0.95;;;24.80;23.30;;;;;;5040035;28;20101;-59
2021/05/20 11:04:33;;;;;;;7.15;0.95;;;24.80;23.50;;;;;;5039892;28;20078;-58
2021/05/20 11:07:00;;;;;;;11.15;1.10;;;24.90;32.50;;;;;;5035359;28;20140;-58
2021/05/20 11:09:45;;;;;;;3.70;0.70;;;24.80;40.00;;;;;;5037145;28;20036;-60
2021/05/20 11:12:12;;;;;;;9.77;1.20;;;24.90;23.50;;;;;;5038665;28;20635;-59
2021/05/20 11:14:39;;;;;;;9.57;1.02;;;24.90;23.60;;;;;;5039237;28;20515;-58
2021/05/20 11:17:27;;;;;;;9.95;0.85;;;24.80;23.70;;;;;;5039283;28;20085;-61
2021/05/20 11:20:25;;;;;;;2.67;0.52;;;24.70;23.80;;;;;;5045685;28;20068;-60
2021/05/20 11:23:09;;;;;;;;;;;24.90;23.50;;;;;;5046723;28;20064;-60
2021/05/20 11:25:37;;;;;;;1.33;0.40;;;25.00;37.00;;;;;;5041826;28;20393;-58
2021/05/20 11:28:07;;;;;;;1.88;0.45;;;25.10;27.80;;;;;;5042966;28;20078;-57
2021/05/20 11:30:33;;;;;;;4.38;0.60;;;24.90;24.80;;;;;;5043506;28;20070;-59
2021/05/20 11:33:01;;;;;;;7.13;0.45;;;25.00;23.40;;;;;;5042757;28;20118;-58
2021/05/20 11:35:56;;;;;;;2.75;0.60;;;25.00;25.10;;;;;;5045342;28;20072;-59
2021/05/20 11:38:26;;;;;;;4.18;1.02;;;;;;;;;;5043705;28;20523;-57
2021/05/20 11:40:53;;;;;;;4.82;1.10;;;25.00;26.20;;;;;;5043819;28;20146;-60
2021/05/20 11:43:30;;;;;;;2.42;0.63;;;25.00;23.60;;;;;;5042712;28;20177;-62
2021/05/20 11:45:58;;;;;;;0.93;0.47;;;24.90;24.30;;;;;;5042432;28;20187;-58
2021/05/20 11:48:24;;;;;;;4.25;0.57;;;24.70;45.90;;;;;;5043817;28;20070;-59
2021/05/20 11:50:52;;;;;;;4.95;0.60;;;24.90;24.00;;;;;;5041842;28;20090;-60
2021/05/20 11:53:18;;;;;;;4.65;0.57;;;24.90;27.10;;;;;;5035970;28;20529;-59
2021/05/20 11:55:46;;;;;;;4.03;0.60;;;24.80;24.00;;;;;;5041138;28;20068;-59
2021/05/20 11:58:13;;;;;;;4.40;0.68;;;24.70;23.90;;;;;;5044259;28;20082;-59
2021/05/20 12:00:40;;;;;;;3.55;0.70;;;24.80;25.60;;;;;;5040509;28;20077;-59
2021/05/20 12:03:09;;;;;;;2.53;0.60;;;24.70;24.00;;;;;;5042321;28;20090;-60
2021/05/20 12:05:37;;;;;;;4.75;0.60;;;24.70;23.70;;;;;;5046927;28;20073;-59
2021/05/20 12:08:04;;;;;;;4.10;0.50;;;24.70;24.10;;;;;;5040419;28;20485;-60
2021/05/20 12:10:32;;;;;;;2.70;0.80;;;24.70;24.30;;;;;;5040665;28;20085;-60
2021/05/20 12:13:03;;;;;;;4.75;0.50;;;24.70;24.50;;;;;;5042544;28;20189;-60
2021/05/20 12:15:30;;;;;;;3.83;0.68;;;24.60;24.00;;;;;;5041848;28;20072;-59
2021/05/20 12:17:58;;;;;;;2.00;0.70;;;24.60;24.50;;;;;;5043800;28;20169;-58
2021/05/20 12:20:25;;;;;;;2.90;0.90;;;24.50;24.90;;;;;;5043163;28;20127;-58
2021/05/20 12:22:52;;;;;;;2.78;0.60;;;24.40;37.10;;;;;;5039379;28;20165;-60
2021/05/20 12:25:24;;;;;;;5.07;0.80;;;24.30;25.00;;;;;;5040963;28;20085;-60
2021/05/20 12:27:56;;;;;;;6.65;0.80;;;24.30;25.70;;;;;;5042285;28;20086;-60
2021/05/20 12:30:25;;;;;;;4.50;0.80;;;24.30;25.30;;;;;;5040190;28;20101;-60
2021/05/20 12:32:53;;;;;;;5.10;0.65;;;24.20;24.70;;;;;;5039758;28;20106;-59
2021/05/20 12:35:30;;;;;;;4.38;1.40;;;23.70;49.60;;;;;;5043078;28;20539;-62
2021/05/20 12:38:09;;;;;;;2.70;0.60;;;24.20;25.60;;;;;;5043445;28;20161;-60
2021/05/20 12:40:35;;;;;;;5.28;1.00;;;24.20;25.40;;;;;;5039391;28;20104;-59
2021/05/20 12:43:12;;;;;;;3.30;1.00;;;24.10;26.60;;;;;;5040250;28;20081;-60
2021/05/20 12:45:54;;;;;;;7.15;0.90;;;24.10;26.90;;;;;;5040307;28;20208;-59
2021/05/20 12:48:40;;;;;;;6.35;1.10;;;24.10;27.00;;;;;;5043033;28;20200;-61
2021/05/20 12:51:06;;;;;;;7.88;1.10;;;24.00;27.30;;;;;;5039578;28;20076;-60
2021/05/20 12:53:42;;;;;;;2.72;0.95;;;24.00;27.60;;;;;;5036034;28;20116;-61
2021/05/20 12:56:29;;;;;;;12.65;1.10;;;23.90;32.80;;;;;;5040626;28;20551;-60
2021/05/20 12:59:04;;;;;;;18.02;1.80;;;24.10;46.40;;;;;;5040633;28;20081;-58